Time;durP1;ratioP1;P1;durP2;ratioP2;P2;SDS_P1;SDS_P2;PMS_P1;PMS_P2;Temp;Humidity;BMP_temperature;BMP_pressure;BME280_temperature;BME280_humidity;BME280_pressure;Samples;Min_cycle;Max_cycle;Signal;HPM_P1;HPM_P2
2022/06/04 00:01:47;;;;;;;0.10;0.10;;;19.70;64.50;;;;;;4189899;28;20040;-67
2022/06/04 00:04:12;;;;;;;0.40;0.40;;;19.70;64.60;;;;;;4191440;28;20508;-67
2022/06/04 00:06:36;;;;;;;0.00;0.00;;;19.70;64.30;;;;;;4192899;28;20052;-67
2022/06/04 00:08:58;;;;;;;0.00;0.00;;;19.70;64.40;;;;;;4193303;28;20115;-67
2022/06/04 00:16:39;;;;;;;0.00;0.00;;;19.60;64.70;;;;;;4192458;28;20113;-69
2022/06/04 00:19:03;;;;;;;0.10;0.10;;;19.60;64.40;;;;;;4177548;28;20048;-69
2022/06/04 00:21:25;;;;;;;0.10;0.10;;;19.60;64.50;;;;;;4192958;28;20058;-69
2022/06/04 00:23:47;;;;;;;0.00;0.00;;;19.60;65.60;;;;;;4192821;28;20052;-67
2022/06/04 00:26:13;;;;;;;0.00;0.00;;;19.60;64.60;;;;;;4192304;28;20132;-67
2022/06/04 00:28:36;;;;;;;0.00;0.00;;;19.60;64.60;;;;;;4192757;28;20056;-68
2022/06/04 00:30:59;;;;;;;0.00;0.00;;;19.50;64.60;;;;;;4192165;28;20060;-68
2022/06/04 00:33:21;;;;;;;0.10;0.10;;;19.60;64.70;;;;;;4190530;28;20055;-68
2022/06/04 00:35:45;;;;;;;0.08;0.08;;;19.50;65.60;;;;;;4192435;28;20048;-68
2022/06/04 00:38:08;;;;;;;3.50;0.55;;;19.50;64.70;;;;;;4192146;28;20582;-68
2022/06/04 00:40:38;;;;;;;0.00;0.00;;;19.50;64.80;;;;;;4192011;28;20067;-68
2022/06/04 00:43:00;;;;;;;0.00;0.00;;;19.50;64.90;;;;;;4191884;28;20068;-68
2022/06/04 00:45:59;;;;;;;0.00;0.00;;;19.50;65.00;;;;;;4190367;28;20079;-68
2022/06/04 00:48:23;;;;;;;0.00;0.00;;;19.50;65.10;;;;;;4181222;28;20051;-67
2022/06/04 00:50:47;;;;;;;0.00;0.00;;;19.50;65.20;;;;;;4190426;28;20044;-67
2022/06/04 00:53:11;;;;;;;0.03;0.03;;;19.50;65.20;;;;;;4191112;28;20052;-68
2022/06/04 00:55:48;;;;;;;0.10;0.10;;;19.50;65.30;;;;;;4191947;28;20097;-68
2022/06/04 00:58:25;;;;;;;0.00;0.00;;;19.50;65.20;;;;;;4192010;28;20056;-67
2022/06/04 01:00:54;;;;;;;0.40;0.40;;;19.50;65.10;;;;;;4190324;28;20048;-67
2022/06/04 01:03:29;;;;;;;0.00;0.00;;;19.40;65.30;;;;;;4192316;28;20052;-67
2022/06/04 01:06:08;;;;;;;0.20;0.20;;;19.50;65.40;;;;;;4192138;28;20415;-67
2022/06/04 01:08:53;;;;;;;0.00;0.00;;;19.40;65.20;;;;;;4192121;28;20074;-67
2022/06/04 01:11:22;;;;;;;0.00;0.00;;;19.40;65.40;;;;;;4191827;28;20048;-67
2022/06/04 01:14:00;;;;;;;0.85;0.40;;;19.40;65.40;;;;;;4191630;28;20052;-67
2022/06/04 01:16:28;;;;;;;0.00;0.00;;;19.40;65.50;;;;;;4191121;28;20468;-67
2022/06/04 01:18:58;;;;;;;0.00;0.00;;;19.40;65.40;;;;;;4192004;28;20448;-69
2022/06/04 01:21:29;;;;;;;0.60;0.60;;;19.40;65.60;;;;;;4190086;28;20052;-71
2022/06/04 01:24:21;;;;;;;;;;;19.40;65.60;;;;;;4191691;28;20068;-70
2022/06/04 01:27:04;;;;;;;0.00;0.00;;;19.40;65.70;;;;;;4191240;28;19931;-68
2022/06/04 01:29:32;;;;;;;0.00;0.00;;;19.40;65.70;;;;;;4190200;28;20040;-68
2022/06/04 01:31:59;;;;;;;0.00;0.00;;;19.40;65.60;;;;;;4190928;28;20101;-68
2022/06/04 01:34:30;;;;;;;0.08;0.08;;;19.30;65.60;;;;;;4190343;28;20056;-68
2022/06/04 01:36:55;;;;;;;0.20;0.20;;;19.30;65.40;;;;;;4189949;28;20052;-68
2022/06/04 01:39:23;;;;;;;0.00;0.00;;;19.30;65.70;;;;;;4191488;28;20068;-68
2022/06/04 01:41:48;;;;;;;0.00;0.00;;;19.30;65.70;;;;;;4192004;28;20098;-68
2022/06/04 01:44:15;;;;;;;0.10;0.10;;;19.30;65.70;;;;;;4191601;28;20044;-68
2022/06/04 01:46:42;;;;;;;0.38;0.38;;;19.30;65.60;;;;;;4191700;28;20044;-68
2022/06/04 01:49:11;;;;;;;0.38;0.38;;;19.30;65.60;;;;;;4191113;28;20044;-68
2022/06/04 01:51:34;;;;;;;0.00;0.00;;;19.30;65.70;;;;;;4191753;28;20048;-68
2022/06/04 01:54:02;;;;;;;0.30;0.30;;;19.30;65.70;;;;;;4194019;28;20480;-68
2022/06/04 01:56:26;;;;;;;0.00;0.00;;;19.30;65.60;;;;;;4194773;28;20041;-69
2022/06/04 01:58:52;;;;;;;0.00;0.00;;;19.30;65.80;;;;;;4193891;28;20052;-69
2022/06/04 02:01:23;;;;;;;0.00;0.00;;;19.20;65.90;;;;;;4195201;28;20056;-69
2022/06/04 02:03:48;;;;;;;0.00;0.00;;;19.20;66.10;;;;;;4194789;28;20045;-69
2022/06/04 02:06:15;;;;;;;0.20;0.20;;;19.20;66.10;;;;;;4195022;28;20052;-69
2022/06/04 02:08:42;;;;;;;0.00;0.00;;;19.20;65.90;;;;;;4193393;28;20059;-69
2022/06/04 02:11:09;;;;;;;0.40;0.40;;;19.20;66.00;;;;;;4195080;28;20492;-68
2022/06/04 02:13:32;;;;;;;0.00;0.00;;;19.20;66.00;;;;;;4193895;28;20137;-69
2022/06/04 02:16:00;;;;;;;0.00;0.00;;;19.20;65.80;;;;;;4193994;28;20129;-68
2022/06/04 02:18:25;;;;;;;0.00;0.00;;;19.20;65.90;;;;;;4194818;28;20040;-68
2022/06/04 02:20:47;;;;;;;0.00;0.00;;;19.20;66.10;;;;;;4193319;28;20075;-68
2022/06/04 02:23:10;;;;;;;0.22;0.22;;;19.20;66.10;;;;;;4194292;28;20135;-68
2022/06/04 02:25:32;;;;;;;1.42;0.50;;;19.20;66.10;;;;;;4194705;28;20068;-68
2022/06/04 02:27:54;;;;;;;0.00;0.00;;;19.20;65.80;;;;;;4194508;28;20048;-68
2022/06/04 02:30:16;;;;;;;0.52;0.52;;;19.20;65.90;;;;;;4194700;28;20056;-68
2022/06/04 02:32:48;;;;;;;0.00;0.00;;;19.20;66.00;;;;;;4194671;28;20047;-68
2022/06/04 02:35:21;;;;;;;0.00;0.00;;;19.20;65.90;;;;;;4194460;28;20052;-68
2022/06/04 02:37:50;;;;;;;0.00;0.00;;;19.20;67.10;;;;;;4193954;28;20053;-68
2022/06/04 02:40:17;;;;;;;0.00;0.00;;;19.20;66.10;;;;;;4194046;28;20052;-68
2022/06/04 02:42:46;;;;;;;0.00;0.00;;;19.20;66.10;;;;;;4177211;28;20057;-68
2022/06/04 02:45:13;;;;;;;0.00;0.00;;;19.20;66.30;;;;;;4177352;28;20053;-68
2022/06/04 02:47:39;;;;;;;0.05;0.05;;;19.20;66.20;;;;;;4177342;28;20041;-68
2022/06/04 02:50:06;;;;;;;0.00;0.00;;;19.20;66.30;;;;;;4194100;28;20056;-67
2022/06/04 02:52:32;;;;;;;0.63;0.63;;;19.20;66.30;;;;;;4194387;28;20078;-68
2022/06/04 02:54:59;;;;;;;0.00;0.00;;;19.20;66.40;;;;;;4191756;28;20058;-68
2022/06/04 02:57:23;;;;;;;0.63;0.52;;;19.20;66.30;;;;;;4192409;28;20104;-67
2022/06/04 02:59:49;;;;;;;0.00;0.00;;;19.20;66.20;;;;;;4193954;28;20041;-68
2022/06/04 03:02:15;;;;;;;0.90;0.55;;;19.10;66.30;;;;;;4193387;28;20407;-67
2022/06/04 03:04:45;;;;;;;0.00;0.00;;;19.10;66.20;;;;;;4175178;28;20126;-67
2022/06/04 03:07:08;;;;;;;0.03;0.03;;;19.10;66.30;;;;;;4176811;28;20488;-67
2022/06/04 03:09:31;;;;;;;0.03;0.03;;;19.10;66.40;;;;;;4177959;28;20041;-68
2022/06/04 03:11:53;;;;;;;0.10;0.10;;;19.10;66.50;;;;;;4177871;28;20045;-67
2022/06/04 03:14:18;;;;;;;0.20;0.20;;;19.10;66.30;;;;;;4177600;28;20049;-67
2022/06/04 03:16:42;;;;;;;0.00;0.00;;;19.10;66.50;;;;;;4177277;28;20041;-67
2022/06/04 03:19:07;;;;;;;0.00;0.00;;;19.10;66.50;;;;;;4177088;28;20080;-67
2022/06/04 03:21:29;;;;;;;0.10;0.10;;;19.10;66.60;;;;;;4176866;28;20136;-67
2022/06/04 03:23:51;;;;;;;0.55;0.55;;;19.10;66.60;;;;;;4177332;28;20120;-68
2022/06/04 03:26:14;;;;;;;0.00;0.00;;;19.10;66.60;;;;;;4193881;28;20079;-68
2022/06/04 03:28:36;;;;;;;0.00;0.00;;;19.10;66.70;;;;;;4193777;28;20144;-67
2022/06/04 03:30:58;;;;;;;0.00;0.00;;;19.10;66.60;;;;;;4202199;28;20044;-68
2022/06/04 03:33:21;;;;;;;0.00;0.00;;;19.10;66.50;;;;;;4177311;28;20094;-68
2022/06/04 03:35:43;;;;;;;0.00;0.00;;;19.10;66.60;;;;;;4177110;28;20076;-68
2022/06/04 03:38:05;;;;;;;0.13;0.13;;;19.10;66.60;;;;;;4177231;28;20468;-68
2022/06/04 03:40:27;;;;;;;0.00;0.00;;;19.10;67.50;;;;;;4177214;28;20120;-68
2022/06/04 03:42:51;;;;;;;0.20;0.20;;;19.10;66.60;;;;;;4177064;28;20408;-68
2022/06/04 03:45:15;;;;;;;0.15;0.15;;;19.10;66.30;;;;;;4176833;28;20053;-68
2022/06/04 03:47:37;;;;;;;0.00;0.00;;;19.10;66.60;;;;;;4184215;28;20051;-68
2022/06/04 03:50:00;;;;;;;0.00;0.00;;;19.00;66.40;;;;;;4192721;28;20052;-68
2022/06/04 03:52:22;;;;;;;0.00;0.00;;;19.10;66.40;;;;;;4193370;28;20047;-68
2022/06/04 03:54:53;;;;;;;0.00;0.00;;;19.00;66.50;;;;;;4176922;28;20045;-68
2022/06/04 03:59:56;;;;;;;0.13;0.13;;;19.10;66.50;;;;;;4175530;28;20070;-68
2022/06/04 04:02:18;;;;;;;0.00;0.00;;;19.10;66.20;;;;;;4174914;28;20056;-68
2022/06/04 04:04:40;;;;;;;0.08;0.08;;;19.00;66.30;;;;;;4176317;28;20045;-68
2022/06/04 04:07:02;;;;;;;0.00;0.00;;;19.00;66.50;;;;;;4176660;28;20145;-68
2022/06/04 04:09:24;;;;;;;0.00;0.00;;;19.00;66.50;;;;;;4176096;28;20403;-68
2022/06/04 04:11:46;;;;;;;0.28;0.28;;;19.00;66.40;;;;;;4176586;28;20045;-68
2022/06/04 04:14:08;;;;;;;0.08;0.08;;;19.00;66.30;;;;;;4174909;28;20060;-68
2022/06/04 04:16:32;;;;;;;0.00;0.00;;;19.00;66.60;;;;;;4176383;28;20495;-67
2022/06/04 04:18:54;;;;;;;0.00;0.00;;;19.00;66.40;;;;;;4174243;28;20049;-67
2022/06/04 04:21:18;;;;;;;0.00;0.00;;;19.00;66.50;;;;;;4176262;28;20071;-67
2022/06/04 04:23:41;;;;;;;0.08;0.08;;;19.00;66.60;;;;;;4175931;28;20049;-70
2022/06/04 04:26:05;;;;;;;0.00;0.00;;;19.00;66.60;;;;;;4176029;28;20435;-67
2022/06/04 04:28:27;;;;;;;0.00;0.00;;;19.00;66.60;;;;;;4176130;28;20044;-67
2022/06/04 04:30:49;;;;;;;0.00;0.00;;;19.00;66.70;;;;;;4191512;28;20052;-68
2022/06/04 04:33:12;;;;;;;0.00;0.00;;;19.00;66.50;;;;;;4193119;28;20060;-68
2022/06/04 04:35:36;;;;;;;0.00;0.00;;;19.00;66.50;;;;;;4192509;28;20052;-67
2022/06/04 04:37:59;;;;;;;0.30;0.30;;;19.00;66.40;;;;;;4192549;28;20052;-67
2022/06/04 04:40:23;;;;;;;0.00;0.00;;;19.10;66.50;;;;;;4192301;28;20056;-67
2022/06/04 04:42:47;;;;;;;0.00;0.00;;;19.10;66.40;;;;;;4192730;28;20056;-67
2022/06/04 04:45:10;;;;;;;1.35;0.85;;;19.10;66.40;;;;;;4192542;28;20488;-67
2022/06/04 04:47:32;;;;;;;0.00;0.00;;;19.10;66.40;;;;;;4192530;28;20079;-67
2022/06/04 04:49:56;;;;;;;0.00;0.00;;;19.10;66.40;;;;;;4192973;28;20090;-67
2022/06/04 04:52:19;;;;;;;0.00;0.00;;;19.10;66.30;;;;;;4192317;28;20089;-67
2022/06/04 04:54:41;;;;;;;0.38;0.38;;;19.10;66.20;;;;;;4192102;28;20052;-67
2022/06/04 04:57:04;;;;;;;1.08;0.55;;;19.10;66.30;;;;;;4188529;28;20056;-67
2022/06/04 04:59:26;;;;;;;0.00;0.00;;;19.20;66.40;;;;;;4192390;28;20061;-67
2022/06/04 05:01:48;;;;;;;0.63;0.50;;;19.10;66.20;;;;;;4191971;28;20041;-67
2022/06/04 05:04:10;;;;;;;0.00;0.00;;;19.10;66.30;;;;;;4192085;28;20052;-67
2022/06/04 05:06:34;;;;;;;0.00;0.00;;;19.10;66.00;;;;;;4199810;28;20193;-67
2022/06/04 05:08:56;;;;;;;0.00;0.00;;;19.10;66.20;;;;;;4175717;28;20098;-67
2022/06/04 05:11:21;;;;;;;0.00;0.00;;;19.10;65.80;;;;;;4175398;28;20476;-66
2022/06/04 05:13:43;;;;;;;0.28;0.28;;;19.20;65.90;;;;;;4173861;28;20726;-67
2022/06/04 05:16:05;;;;;;;0.43;0.43;;;19.10;66.00;;;;;;4179049;28;20170;-67
2022/06/04 05:18:27;;;;;;;0.00;0.00;;;19.20;66.10;;;;;;4191662;28;20083;-67
2022/06/04 05:20:49;;;;;;;5.57;0.80;;;19.20;65.90;;;;;;4192016;28;20044;-68
2022/06/04 05:23:13;;;;;;;0.00;0.00;;;19.30;65.80;;;;;;4192243;28;20076;-68
2022/06/04 05:25:35;;;;;;;0.20;0.17;;;19.40;65.70;;;;;;4191734;28;20472;-67
2022/06/04 05:27:57;;;;;;;0.00;0.00;;;19.40;65.40;;;;;;4174727;28;20076;-67
2022/06/04 05:30:19;;;;;;;0.00;0.00;;;19.50;65.00;;;;;;4175603;28;20055;-67
2022/06/04 05:32:41;;;;;;;0.00;0.00;;;19.50;64.60;;;;;;4175233;28;20520;-67
2022/06/04 05:35:04;;;;;;;0.03;0.03;;;19.50;64.30;;;;;;4179066;28;20464;-67
2022/06/04 05:37:27;;;;;;;0.00;0.00;;;19.60;64.30;;;;;;4192057;28;20506;-68
2022/06/04 05:39:56;;;;;;;0.32;0.32;;;19.60;64.70;;;;;;4191796;28;20089;-67
2022/06/04 05:42:18;;;;;;;0.00;0.00;;;19.60;64.00;;;;;;4191505;28;20055;-67
2022/06/04 05:44:40;;;;;;;0.00;0.00;;;19.60;63.50;;;;;;4191369;28;20037;-67
2022/06/04 05:47:04;;;;;;;0.32;0.32;;;19.60;63.70;;;;;;4161950;28;20045;-67
2022/06/04 05:49:27;;;;;;;0.00;0.00;;;19.60;63.80;;;;;;4175203;28;20045;-67
2022/06/04 05:51:51;;;;;;;0.00;0.00;;;19.60;63.30;;;;;;4191789;28;20128;-68
2022/06/04 05:54:14;;;;;;;0.00;0.00;;;19.60;63.10;;;;;;4192151;28;20135;-68
2022/06/04 05:56:41;;;;;;;0.55;0.55;;;19.60;63.30;;;;;;4191828;28;20495;-68
2022/06/04 05:59:06;;;;;;;0.47;0.47;;;19.60;63.00;;;;;;4178469;28;20044;-68
2022/06/04 06:01:31;;;;;;;0.00;0.00;;;19.50;62.90;;;;;;4191741;28;20059;-68
2022/06/04 06:03:53;;;;;;;0.00;0.00;;;19.50;63.10;;;;;;4191770;28;20454;-68
2022/06/04 06:06:17;;;;;;;0.00;0.00;;;19.50;62.90;;;;;;4191736;28;20075;-68
2022/06/04 06:08:53;;;;;;;0.10;0.10;;;19.40;62.80;;;;;;4191939;28;20044;-68
2022/06/04 06:11:17;;;;;;;0.00;0.00;;;19.40;62.80;;;;;;4191688;28;20036;-68
2022/06/04 06:13:42;;;;;;;0.00;0.00;;;19.40;62.60;;;;;;4191584;28;20053;-68
2022/06/04 06:16:08;;;;;;;0.00;0.00;;;19.40;62.90;;;;;;4191558;28;20048;-69
2022/06/04 06:18:30;;;;;;;0.00;0.00;;;19.30;62.70;;;;;;4190937;28;20090;-68
2022/06/04 06:20:53;;;;;;;0.00;0.00;;;19.40;63.00;;;;;;4191732;28;20048;-68
2022/06/04 06:23:16;;;;;;;0.08;0.08;;;19.30;63.10;;;;;;4191906;28;20499;-68
2022/06/04 06:25:38;;;;;;;1.75;0.98;;;19.40;63.20;;;;;;4190438;28;20044;-69
2022/06/04 06:28:00;;;;;;;0.00;0.00;;;19.40;63.20;;;;;;4191744;28;20147;-68
2022/06/04 06:30:24;;;;;;;0.00;0.00;;;19.40;62.90;;;;;;4189782;28;20487;-69
2022/06/04 06:32:46;;;;;;;0.00;0.00;;;19.40;62.80;;;;;;4191195;28;20056;-69
2022/06/04 06:35:09;;;;;;;0.28;0.28;;;19.40;62.90;;;;;;4191386;28;20446;-69
2022/06/04 06:37:31;;;;;;;0.00;0.00;;;19.40;63.20;;;;;;4191686;28;20076;-69
2022/06/04 06:39:55;;;;;;;0.55;0.55;;;19.40;63.20;;;;;;4176766;28;20041;-68
2022/06/04 06:42:17;;;;;;;0.28;0.28;;;19.40;63.10;;;;;;4187030;28;20044;-68
2022/06/04 06:44:46;;;;;;;0.00;0.00;;;19.50;63.20;;;;;;4185344;28;20110;-68
2022/06/04 06:47:10;;;;;;;0.00;0.00;;;19.60;63.10;;;;;;4173302;28;20197;-68
2022/06/04 06:49:33;;;;;;;0.00;0.00;;;19.60;62.80;;;;;;4182259;28;20214;-68
2022/06/04 06:51:57;;;;;;;0.00;0.00;;;19.60;62.60;;;;;;4187559;28;20052;-68
2022/06/04 06:54:21;;;;;;;0.00;0.00;;;19.60;62.20;;;;;;4177796;28;20492;-68
2022/06/04 06:56:45;;;;;;;0.00;0.00;;;19.70;61.80;;;;;;4179933;28;20052;-68
2022/06/04 06:59:07;;;;;;;0.17;0.17;;;19.70;61.80;;;;;;4179308;28;20056;-68
2022/06/04 07:01:31;;;;;;;0.00;0.00;;;19.70;61.90;;;;;;4183552;28;20480;-68
2022/06/04 07:03:56;;;;;;;0.00;0.00;;;19.70;62.20;;;;;;4176635;28;20581;-68
2022/06/04 07:06:29;;;;;;;0.00;0.00;;;19.80;62.10;;;;;;4190884;28;20080;-67
2022/06/04 07:08:51;;;;;;;0.00;0.00;;;19.80;62.10;;;;;;4177486;28;20041;-68
2022/06/04 07:11:13;;;;;;;0.00;0.00;;;19.80;61.90;;;;;;4175960;28;20045;-68
2022/06/04 07:13:35;;;;;;;0.10;0.10;;;19.80;62.00;;;;;;4188901;28;20053;-68
2022/06/04 07:15:57;;;;;;;0.13;0.13;;;19.90;61.90;;;;;;4179738;28;20419;-68
2022/06/04 07:18:19;;;;;;;0.10;0.10;;;19.90;61.60;;;;;;4177571;28;20049;-67
2022/06/04 07:20:43;;;;;;;0.00;0.00;;;19.90;61.90;;;;;;4185728;28;20136;-68
2022/06/04 07:23:06;;;;;;;0.00;0.00;;;19.90;61.80;;;;;;4175517;28;20461;-68
2022/06/04 07:25:28;;;;;;;0.00;0.00;;;20.00;61.70;;;;;;4190721;28;20060;-68
2022/06/04 07:27:50;;;;;;;0.38;0.38;;;20.00;61.20;;;;;;4177364;28;20140;-67
2022/06/04 07:30:16;;;;;;;0.00;0.00;;;20.00;61.20;;;;;;4176869;28;20155;-67
2022/06/04 07:32:38;;;;;;;0.00;0.00;;;20.10;61.00;;;;;;4175204;28;20053;-68
2022/06/04 07:35:00;;;;;;;0.00;0.00;;;20.10;60.80;;;;;;4178895;28;20498;-67
2022/06/04 07:37:24;;;;;;;0.90;0.90;;;20.10;60.70;;;;;;4189982;28;20052;-68
2022/06/04 07:39:46;;;;;;;0.63;0.63;;;20.10;60.80;;;;;;4183876;28;20053;-67
2022/06/04 07:42:13;;;;;;;0.00;0.00;;;20.20;60.90;;;;;;4173694;28;20045;-68
2022/06/04 07:44:35;;;;;;;0.00;0.00;;;20.20;60.70;;;;;;4178638;28;20036;-67
2022/06/04 07:46:58;;;;;;;0.00;0.00;;;20.20;60.60;;;;;;4184367;28;20087;-67
2022/06/04 07:49:21;;;;;;;0.00;0.00;;;20.20;60.70;;;;;;4190448;28;20056;-67
2022/06/04 07:51:45;;;;;;;0.03;0.03;;;20.20;60.70;;;;;;4173615;28;20475;-67
2022/06/04 07:54:09;;;;;;;0.00;0.00;;;20.20;60.40;;;;;;4175033;28;20060;-67
2022/06/04 07:56:32;;;;;;;0.10;0.10;;;20.20;60.40;;;;;;4174856;28;20036;-68
2022/06/04 07:58:54;;;;;;;0.08;0.08;;;20.20;60.60;;;;;;4175387;28;20048;-68
2022/06/04 08:01:19;;;;;;;0.00;0.00;;;20.20;60.60;;;;;;4185216;28;20072;-68
2022/06/04 08:03:43;;;;;;;0.80;0.60;;;20.20;60.70;;;;;;4174596;28;20057;-68
2022/06/04 08:06:06;;;;;;;0.00;0.00;;;20.20;60.60;;;;;;4176537;28;20045;-68
2022/06/04 08:08:28;;;;;;;0.38;0.38;;;20.30;60.70;;;;;;4177240;28;20507;-67
2022/06/04 08:10:52;;;;;;;0.00;0.00;;;20.20;60.50;;;;;;4190194;28;20052;-68
2022/06/04 08:13:14;;;;;;;0.75;0.75;;;20.20;60.10;;;;;;4188034;28;20141;-68
2022/06/04 08:15:36;;;;;;;0.00;0.00;;;20.30;60.20;;;;;;4188736;28;20448;-68
2022/06/04 08:18:00;;;;;;;0.00;0.00;;;20.30;60.30;;;;;;4181705;28;20048;-68
2022/06/04 08:20:22;;;;;;;0.00;0.00;;;20.30;60.50;;;;;;4188992;28;22800;-70
2022/06/04 08:22:44;;;;;;;0.00;0.00;;;20.30;60.40;;;;;;4173798;28;20041;-69
2022/06/04 08:25:07;;;;;;;0.08;0.08;;;20.30;60.80;;;;;;4174425;28;20059;-69
2022/06/04 08:27:31;;;;;;;0.00;0.00;;;20.30;60.80;;;;;;4176351;28;20048;-69
2022/06/04 08:29:53;;;;;;;1.08;1.00;;;20.40;60.70;;;;;;4177409;28;20079;-72
2022/06/04 08:32:20;;;;;;;0.10;0.10;;;20.40;60.30;;;;;;4188284;28;20052;-71
2022/06/04 08:34:42;;;;;;;1.95;1.25;;;20.40;60.40;;;;;;4173808;28;20238;-71
2022/06/04 08:37:06;;;;;;;1.65;1.55;;;20.40;60.70;;;;;;4174797;28;20144;-72
2022/06/04 08:39:30;;;;;;;0.00;0.00;;;20.40;60.90;;;;;;4180375;28;20128;-71
2022/06/04 08:42:03;;;;;;;0.75;0.75;;;20.50;60.30;;;;;;4177652;28;20373;-69
2022/06/04 08:44:33;;;;;;;0.05;0.05;;;20.50;60.30;;;;;;4173705;28;20381;-71
2022/06/04 08:47:00;;;;;;;0.10;0.10;;;20.50;60.30;;;;;;4174415;28;20047;-71
2022/06/04 08:49:29;;;;;;;0.00;0.00;;;20.50;60.00;;;;;;4173770;28;20090;-71
2022/06/04 08:51:51;;;;;;;0.00;0.00;;;20.60;59.90;;;;;;4180458;28;20053;-71
2022/06/04 08:59:50;;;;;;;0.10;0.10;;;20.60;59.60;;;;;;4186861;28;20049;-69
2022/06/04 09:02:18;;;;;;;0.00;0.00;;;20.60;59.70;;;;;;4174940;28;20048;-68
2022/06/04 09:04:59;;;;;;;0.00;0.00;;;20.70;59.40;;;;;;4189020;28;20074;-68
2022/06/04 09:07:27;;;;;;;0.00;0.00;;;20.70;59.30;;;;;;4189475;28;20052;-68
2022/06/04 09:09:56;;;;;;;0.00;0.00;;;20.70;59.20;;;;;;4173569;28;20052;-68
2022/06/04 09:12:33;;;;;;;0.05;0.05;;;20.70;59.20;;;;;;4173812;28;20128;-68
2022/06/04 09:15:00;;;;;;;0.22;0.22;;;20.70;59.40;;;;;;4172707;28;20134;-68
2022/06/04 09:17:29;;;;;;;0.00;0.00;;;20.70;59.10;;;;;;4184082;28;20479;-68
2022/06/04 09:19:56;;;;;;;0.10;0.10;;;20.70;58.90;;;;;;4172981;28;20049;-68
2022/06/04 09:22:21;;;;;;;0.08;0.08;;;20.70;59.90;;;;;;4172121;28;20474;-69
2022/06/04 09:24:44;;;;;;;0.20;0.20;;;20.80;59.10;;;;;;4174256;28;20658;-69
2022/06/04 09:27:33;;;;;;;0.00;0.00;;;20.80;59.00;;;;;;4175592;28;20064;-68
2022/06/04 09:30:04;;;;;;;0.70;0.50;;;20.80;59.30;;;;;;4183272;28;20494;-68
2022/06/04 09:32:44;;;;;;;0.00;0.00;;;20.80;59.20;;;;;;4179440;28;20143;-69
2022/06/04 09:35:07;;;;;;;0.00;0.00;;;20.80;59.00;;;;;;4184139;28;20052;-69
2022/06/04 09:37:29;;;;;;;0.10;0.10;;;20.80;59.10;;;;;;4187991;28;20036;-69
2022/06/04 09:40:05;;;;;;;0.20;0.20;;;20.80;58.80;;;;;;4186577;28;20045;-69
2022/06/04 09:42:30;;;;;;;0.00;0.00;;;20.90;58.90;;;;;;4179978;28;20053;-69
2022/06/04 09:44:58;;;;;;;0.32;0.28;;;20.90;58.80;;;;;;4172922;28;20138;-69
2022/06/04 09:47:28;;;;;;;0.22;0.22;;;20.90;58.70;;;;;;4176664;28;20103;-69
2022/06/04 09:49:56;;;;;;;0.10;0.10;;;20.90;58.80;;;;;;4182887;28;20056;-69
2022/06/04 09:52:22;;;;;;;0.20;0.20;;;20.90;58.70;;;;;;4184374;28;20425;-69
2022/06/04 09:54:45;;;;;;;0.00;0.00;;;20.90;58.80;;;;;;4185593;28;20062;-69
2022/06/04 09:57:08;;;;;;;0.00;0.00;;;20.90;58.70;;;;;;4173469;28;20059;-70
2022/06/04 09:59:32;;;;;;;0.00;0.00;;;21.00;58.50;;;;;;4177971;28;20515;-70
2022/06/04 10:01:59;;;;;;;0.00;0.00;;;21.00;58.30;;;;;;4189167;28;20052;-69
2022/06/04 10:04:24;;;;;;;0.00;0.00;;;21.00;58.30;;;;;;4180666;28;20059;-70
2022/06/04 10:06:47;;;;;;;0.10;0.10;;;21.00;58.30;;;;;;4184599;28;20047;-69
2022/06/04 10:11:57;;;;;;;0.08;0.08;;;21.00;58.40;;;;;;4172541;28;20440;-70
2022/06/04 10:14:28;;;;;;;0.20;0.20;;;21.10;58.50;;;;;;4181233;28;20060;-70
2022/06/04 10:16:50;;;;;;;0.20;0.20;;;21.10;58.60;;;;;;4186170;28;20732;-70
2022/06/04 10:19:17;;;;;;;0.00;0.00;;;21.10;58.60;;;;;;4174679;28;20060;-69
2022/06/04 10:21:42;;;;;;;0.00;0.00;;;21.10;58.30;;;;;;4191413;28;20139;-69
2022/06/04 10:24:07;;;;;;;0.10;0.10;;;21.20;58.60;;;;;;4175899;28;20506;-69
2022/06/04 10:26:53;;;;;;;0.00;0.00;;;21.20;58.80;;;;;;4191787;28;20052;-69
2022/06/04 10:29:33;;;;;;;0.00;0.00;;;21.20;58.80;;;;;;4177250;28;20579;-69
2022/06/04 10:32:05;;;;;;;0.00;0.00;;;21.20;58.70;;;;;;4175948;28;20041;-69
2022/06/04 10:34:34;;;;;;;0.00;0.00;;;21.20;58.70;;;;;;4179105;28;20047;-69
2022/06/04 10:37:09;;;;;;;0.98;0.30;;;21.20;58.80;;;;;;4190363;28;20052;-70
2022/06/04 10:39:43;;;;;;;0.20;0.20;;;21.20;58.70;;;;;;4189087;28;20048;-68
2022/06/04 10:42:14;;;;;;;0.00;0.00;;;21.20;58.70;;;;;;4179291;28;20105;-69
2022/06/04 10:44:50;;;;;;;0.00;0.00;;;21.30;58.90;;;;;;4186813;28;20045;-68
2022/06/04 10:47:25;;;;;;;0.35;0.35;;;21.20;58.70;;;;;;4186030;28;20052;-68
2022/06/04 10:50:25;;;;;;;0.05;0.05;;;21.30;58.70;;;;;;4183838;28;20045;-69
2022/06/04 10:52:53;;;;;;;0.00;0.00;;;21.30;58.80;;;;;;4188494;28;20369;-69
2022/06/04 10:55:23;;;;;;;0.30;0.30;;;21.30;58.90;;;;;;4183757;28;20087;-69
2022/06/04 10:57:52;;;;;;;0.10;0.10;;;21.30;58.80;;;;;;4176084;28;20056;-69
2022/06/04 11:00:19;;;;;;;0.00;0.00;;;21.30;58.70;;;;;;4175941;28;20057;-69
2022/06/04 11:02:46;;;;;;;0.00;0.00;;;21.30;58.80;;;;;;4178932;28;20123;-69
2022/06/04 11:05:17;;;;;;;0.00;0.00;;;21.30;58.90;;;;;;4179698;28;20056;-69
2022/06/04 11:07:52;;;;;;;0.20;0.20;;;21.30;58.90;;;;;;4178699;28;20485;-69
2022/06/04 11:10:18;;;;;;;0.00;0.00;;;21.30;58.80;;;;;;4190572;28;20094;-69
2022/06/04 11:12:46;;;;;;;0.10;0.10;;;21.30;58.90;;;;;;4182538;28;20058;-70
2022/06/04 11:15:15;;;;;;;0.00;0.00;;;21.30;58.90;;;;;;4183075;28;20127;-70
2022/06/04 11:17:45;;;;;;;0.60;0.60;;;21.30;59.00;;;;;;4180707;28;20045;-70
2022/06/04 11:20:13;;;;;;;0.00;0.00;;;21.40;59.00;;;;;;4180658;28;20060;-70
2022/06/04 11:22:37;;;;;;;0.00;0.00;;;21.30;58.80;;;;;;4184919;28;20045;-69
2022/06/04 11:25:04;;;;;;;0.00;0.00;;;21.40;58.80;;;;;;4188762;28;20048;-70
2022/06/04 11:27:33;;;;;;;0.00;0.00;;;21.40;58.90;;;;;;4177714;28;20410;-69
2022/06/04 11:29:56;;;;;;;0.13;0.13;;;21.40;58.90;;;;;;4179533;28;20423;-69
2022/06/04 11:32:26;;;;;;;0.28;0.28;;;21.40;58.90;;;;;;4181162;28;20077;-70
2022/06/04 11:35:13;;;;;;;0.03;0.03;;;21.40;58.70;;;;;;4191139;28;20036;-70
2022/06/04 11:37:47;;;;;;;0.63;0.63;;;21.40;58.70;;;;;;4181593;28;20043;-70
2022/06/04 11:40:26;;;;;;;0.00;0.00;;;21.40;58.90;;;;;;4185106;28;20048;-70
2022/06/04 11:42:56;;;;;;;0.00;0.00;;;21.40;58.80;;;;;;4173158;28;20111;-69
2022/06/04 11:45:37;;;;;;;0.22;0.22;;;21.40;58.80;;;;;;4188355;28;20056;-70
2022/06/04 11:48:11;;;;;;;0.00;0.00;;;21.40;59.00;;;;;;4175738;28;20102;-69
2022/06/04 11:50:40;;;;;;;0.00;0.00;;;21.40;58.70;;;;;;4189881;28;20045;-69
2022/06/04 11:53:17;;;;;;;0.32;0.32;;;21.40;58.40;;;;;;4192421;28;20381;-69
2022/06/04 11:55:46;;;;;;;0.00;0.00;;;21.40;58.70;;;;;;4192795;28;20064;-69
2022/06/04 11:58:43;;;;;;;0.00;0.00;;;21.40;58.70;;;;;;4193274;28;20136;-69
2022/06/04 12:01:13;;;;;;;0.10;0.10;;;21.40;58.60;;;;;;4193182;28;20053;-69
2022/06/04 12:03:39;;;;;;;0.10;0.10;;;21.40;58.60;;;;;;4192858;28;20053;-69
2022/06/04 12:06:04;;;;;;;0.10;0.10;;;21.40;58.90;;;;;;4192725;28;20054;-70
2022/06/04 12:08:29;;;;;;;0.15;0.15;;;21.40;59.00;;;;;;4193135;28;20044;-69
2022/06/04 12:11:02;;;;;;;0.10;0.10;;;21.40;58.90;;;;;;4192817;28;20052;-69
2022/06/04 12:13:35;;;;;;;0.00;0.00;;;21.40;59.50;;;;;;4193097;28;20470;-69
2022/06/04 12:16:05;;;;;;;0.95;0.75;;;21.50;58.90;;;;;;4192862;28;20044;-69
2022/06/04 12:18:32;;;;;;;0.65;0.65;;;21.40;59.00;;;;;;4192725;28;20050;-69
2022/06/04 12:26:32;;;;;;;1.17;0.63;;;21.50;58.90;;;;;;4152880;28;20451;-69
2022/06/04 12:28:57;;;;;;;0.10;0.10;;;21.50;59.00;;;;;;4185833;28;20067;-69
2022/06/04 12:31:34;;;;;;;0.00;0.00;;;21.50;59.00;;;;;;4176059;28;20468;-69
2022/06/04 12:33:56;;;;;;;0.00;0.00;;;21.50;59.00;;;;;;4174688;28;20053;-69
2022/06/04 12:36:26;;;;;;;0.00;0.00;;;21.60;58.90;;;;;;4175900;28;20064;-69
2022/06/04 12:38:57;;;;;;;0.10;0.10;;;21.60;58.70;;;;;;4174977;28;20051;-69
2022/06/04 12:41:21;;;;;;;0.00;0.00;;;21.60;58.40;;;;;;4176440;28;20925;-69
2022/06/04 12:43:46;;;;;;;0.60;0.10;;;21.60;58.30;;;;;;4191974;28;20040;-69
2022/06/04 12:46:28;;;;;;;0.00;0.00;;;21.60;58.40;;;;;;4176944;28;20495;-69
2022/06/04 12:48:56;;;;;;;0.40;0.40;;;21.60;58.60;;;;;;4192194;28;20123;-69
2022/06/04 12:51:48;;;;;;;0.25;0.25;;;21.60;58.50;;;;;;4190821;28;20478;-68
2022/06/04 12:54:25;;;;;;;0.00;0.00;;;21.70;58.50;;;;;;4192235;28;20044;-70
2022/06/04 12:56:54;;;;;;;0.00;0.00;;;21.70;58.50;;;;;;4190810;28;20048;-70
2022/06/04 12:59:28;;;;;;;0.00;0.00;;;21.70;58.20;;;;;;4191809;28;20082;-70
2022/06/04 13:01:52;;;;;;;0.03;0.03;;;21.70;58.40;;;;;;4192298;28;20555;-69
2022/06/04 13:04:22;;;;;;;0.00;0.00;;;21.70;58.50;;;;;;4192277;28;20456;-69
2022/06/04 13:06:48;;;;;;;0.20;0.20;;;21.70;58.50;;;;;;4192551;28;20068;-69